sensor_id;sensor_type;location;lat;lon;timestamp;P1;durP1;ratioP1;P2;durP2;ratioP2
12267;SDS011;6196;48.398;11.736;2023-09-19T00:00:58;2.63;;;1.50;;
12267;SDS011;6196;48.398;11.736;2023-09-19T00:03:25;2.17;;;1.47;;
12267;SDS011;6196;48.398;11.736;2023-09-19T00:05:52;2.00;;;1.43;;
12267;SDS011;6196;48.398;11.736;2023-09-19T00:08:19;2.53;;;1.40;;
12267;SDS011;6196;48.398;11.736;2023-09-19T00:10:50;2.00;;;1.30;;
12267;SDS011;6196;48.398;11.736;2023-09-19T00:13:17;1.40;;;1.20;;
12267;SDS011;6196;48.398;11.736;2023-09-19T00:15:45;2.33;;;1.30;;
12267;SDS011;6196;48.398;11.736;2023-09-19T00:18:17;2.20;;;1.53;;
12267;SDS011;6196;48.398;11.736;2023-09-19T00:20:47;3.53;;;1.30;;
12267;SDS011;6196;48.398;11.736;2023-09-19T00:23:15;3.50;;;1.50;;
12267;SDS011;6196;48.398;11.736;2023-09-19T00:25:42;1.67;;;1.37;;
12267;SDS011;6196;48.398;11.736;2023-09-19T00:28:09;3.97;;;1.57;;
12267;SDS011;6196;48.398;11.736;2023-09-19T00:30:36;2.43;;;1.30;;
12267;SDS011;6196;48.398;11.736;2023-09-19T00:33:05;2.73;;;1.30;;
12267;SDS011;6196;48.398;11.736;2023-09-19T00:35:33;1.90;;;1.50;;
12267;SDS011;6196;48.398;11.736;2023-09-19T00:38:00;2.43;;;1.70;;
12267;SDS011;6196;48.398;11.736;2023-09-19T00:40:28;3.00;;;1.40;;
12267;SDS011;6196;48.398;11.736;2023-09-19T00:42:59;3.57;;;1.57;;
12267;SDS011;6196;48.398;11.736;2023-09-19T00:45:26;2.80;;;1.30;;
12267;SDS011;6196;48.398;11.736;2023-09-19T00:47:55;2.03;;;1.53;;
12267;SDS011;6196;48.398;11.736;2023-09-19T00:50:24;2.37;;;1.33;;
12267;SDS011;6196;48.398;11.736;2023-09-19T00:52:55;3.27;;;1.30;;
12267;SDS011;6196;48.398;11.736;2023-09-19T00:55:23;1.70;;;1.30;;
12267;SDS011;6196;48.398;11.736;2023-09-19T00:57:51;2.50;;;1.50;;
12267;SDS011;6196;48.398;11.736;2023-09-19T01:00:19;4.07;;;1.50;;
12267;SDS011;6196;48.398;11.736;2023-09-19T01:02:47;2.77;;;1.27;;
12267;SDS011;6196;48.398;11.736;2023-09-19T01:05:15;3.17;;;1.37;;
12267;SDS011;6196;48.398;11.736;2023-09-19T01:07:42;3.50;;;1.43;;
12267;SDS011;6196;48.398;11.736;2023-09-19T01:10:11;3.00;;;1.40;;
12267;SDS011;6196;48.398;11.736;2023-09-19T01:13:26;2.30;;;1.30;;
12267;SDS011;6196;48.398;11.736;2023-09-19T01:22:26;2.13;;;1.20;;
12267;SDS011;6196;48.398;11.736;2023-09-19T01:28:28;2.03;;;1.50;;
12267;SDS011;6196;48.398;11.736;2023-09-19T01:31:13;2.03;;;1.40;;
12267;SDS011;6196;48.398;11.736;2023-09-19T01:34:14;1.90;;;1.30;;
12267;SDS011;6196;48.398;11.736;2023-09-19T01:36:36;3.73;;;1.50;;
12267;SDS011;6196;48.398;11.736;2023-09-19T01:39:05;2.00;;;1.60;;
12267;SDS011;6196;48.398;11.736;2023-09-19T01:44:23;2.87;;;1.40;;
12267;SDS011;6196;48.398;11.736;2023-09-19T01:47:32;1.60;;;1.10;;
12267;SDS011;6196;48.398;11.736;2023-09-19T01:53:28;2.63;;;1.20;;
12267;SDS011;6196;48.398;11.736;2023-09-19T01:56:04;3.73;;;1.40;;
12267;SDS011;6196;48.398;11.736;2023-09-19T01:58:45;2.83;;;1.47;;
12267;SDS011;6196;48.398;11.736;2023-09-19T02:01:16;4.80;;;1.67;;
12267;SDS011;6196;48.398;11.736;2023-09-19T02:03:47;2.93;;;1.30;;
12267;SDS011;6196;48.398;11.736;2023-09-19T02:06:15;3.73;;;1.47;;
12267;SDS011;6196;48.398;11.736;2023-09-19T02:08:44;2.73;;;1.67;;
12267;SDS011;6196;48.398;11.736;2023-09-19T02:11:12;1.40;;;1.30;;
12267;SDS011;6196;48.398;11.736;2023-09-19T02:13:42;3.03;;;1.93;;
12267;SDS011;6196;48.398;11.736;2023-09-19T02:16:09;2.17;;;1.57;;
12267;SDS011;6196;48.398;11.736;2023-09-19T02:18:38;2.83;;;1.40;;
12267;SDS011;6196;48.398;11.736;2023-09-19T02:21:05;3.00;;;1.70;;
12267;SDS011;6196;48.398;11.736;2023-09-19T02:23:38;4.73;;;1.70;;
12267;SDS011;6196;48.398;11.736;2023-09-19T02:26:06;2.47;;;1.27;;
12267;SDS011;6196;48.398;11.736;2023-09-19T02:28:33;3.20;;;1.67;;
12267;SDS011;6196;48.398;11.736;2023-09-19T02:31:02;3.50;;;1.50;;
12267;SDS011;6196;48.398;11.736;2023-09-19T02:33:31;2.30;;;1.40;;
12267;SDS011;6196;48.398;11.736;2023-09-19T02:35:59;1.73;;;1.50;;
12267;SDS011;6196;48.398;11.736;2023-09-19T02:38:27;2.77;;;1.23;;
12267;SDS011;6196;48.398;11.736;2023-09-19T02:40:55;2.33;;;1.60;;
12267;SDS011;6196;48.398;11.736;2023-09-19T02:43:23;2.00;;;1.70;;
12267;SDS011;6196;48.398;11.736;2023-09-19T02:45:50;1.60;;;1.40;;
12267;SDS011;6196;48.398;11.736;2023-09-19T02:48:21;2.17;;;1.40;;
12267;SDS011;6196;48.398;11.736;2023-09-19T02:50:51;2.37;;;1.30;;
12267;SDS011;6196;48.398;11.736;2023-09-19T02:53:18;3.33;;;1.60;;
12267;SDS011;6196;48.398;11.736;2023-09-19T02:55:46;5.30;;;1.77;;
12267;SDS011;6196;48.398;11.736;2023-09-19T02:58:14;4.03;;;1.50;;
12267;SDS011;6196;48.398;11.736;2023-09-19T03:00:42;2.23;;;1.40;;
12267;SDS011;6196;48.398;11.736;2023-09-19T03:03:14;2.00;;;1.47;;
12267;SDS011;6196;48.398;11.736;2023-09-19T03:05:43;1.93;;;1.30;;
12267;SDS011;6196;48.398;11.736;2023-09-19T03:08:15;6.37;;;1.60;;
12267;SDS011;6196;48.398;11.736;2023-09-19T03:10:45;3.50;;;1.77;;
12267;SDS011;6196;48.398;11.736;2023-09-19T03:13:14;2.10;;;1.60;;
12267;SDS011;6196;48.398;11.736;2023-09-19T03:15:42;2.30;;;1.30;;
12267;SDS011;6196;48.398;11.736;2023-09-19T03:18:17;3.90;;;1.70;;
12267;SDS011;6196;48.398;11.736;2023-09-19T03:20:51;2.10;;;1.60;;
12267;SDS011;6196;48.398;11.736;2023-09-19T03:23:21;2.33;;;1.53;;
12267;SDS011;6196;48.398;11.736;2023-09-19T03:25:49;2.00;;;1.50;;
12267;SDS011;6196;48.398;11.736;2023-09-19T03:28:16;1.87;;;1.43;;
12267;SDS011;6196;48.398;11.736;2023-09-19T03:30:44;2.03;;;1.20;;
12267;SDS011;6196;48.398;11.736;2023-09-19T03:33:11;2.87;;;1.47;;
12267;SDS011;6196;48.398;11.736;2023-09-19T03:35:39;4.03;;;1.60;;
12267;SDS011;6196;48.398;11.736;2023-09-19T03:38:06;1.93;;;1.37;;
12267;SDS011;6196;48.398;11.736;2023-09-19T03:40:33;2.83;;;1.93;;
12267;SDS011;6196;48.398;11.736;2023-09-19T03:43:00;1.70;;;1.27;;
12267;SDS011;6196;48.398;11.736;2023-09-19T03:45:27;2.10;;;1.57;;
12267;SDS011;6196;48.398;11.736;2023-09-19T03:47:54;2.63;;;1.50;;
12267;SDS011;6196;48.398;11.736;2023-09-19T03:50:21;2.87;;;1.30;;
12267;SDS011;6196;48.398;11.736;2023-09-19T03:52:48;4.00;;;1.47;;
12267;SDS011;6196;48.398;11.736;2023-09-19T03:55:15;2.80;;;1.40;;
12267;SDS011;6196;48.398;11.736;2023-09-19T03:57:42;2.10;;;1.23;;
12267;SDS011;6196;48.398;11.736;2023-09-19T04:00:15;2.10;;;1.50;;
12267;SDS011;6196;48.398;11.736;2023-09-19T04:02:47;2.27;;;1.50;;
12267;SDS011;6196;48.398;11.736;2023-09-19T04:05:15;1.73;;;1.30;;
12267;SDS011;6196;48.398;11.736;2023-09-19T04:07:42;3.60;;;1.50;;
12267;SDS011;6196;48.398;11.736;2023-09-19T04:10:09;1.20;;;1.10;;
12267;SDS011;6196;48.398;11.736;2023-09-19T04:12:37;2.53;;;1.30;;
12267;SDS011;6196;48.398;11.736;2023-09-19T04:15:05;1.60;;;1.50;;
12267;SDS011;6196;48.398;11.736;2023-09-19T04:17:33;2.00;;;1.53;;
12267;SDS011;6196;48.398;11.736;2023-09-19T04:20:00;1.87;;;1.17;;
12267;SDS011;6196;48.398;11.736;2023-09-19T04:22:27;4.73;;;1.40;;
12267;SDS011;6196;48.398;11.736;2023-09-19T04:24:54;3.10;;;1.60;;
12267;SDS011;6196;48.398;11.736;2023-09-19T04:27:21;2.83;;;1.37;;
12267;SDS011;6196;48.398;11.736;2023-09-19T04:29:49;2.17;;;1.50;;
12267;SDS011;6196;48.398;11.736;2023-09-19T04:32:19;1.70;;;1.30;;
12267;SDS011;6196;48.398;11.736;2023-09-19T04:34:46;2.60;;;1.33;;
12267;SDS011;6196;48.398;11.736;2023-09-19T04:37:16;3.33;;;1.10;;
12267;SDS011;6196;48.398;11.736;2023-09-19T04:39:43;2.27;;;1.50;;
12267;SDS011;6196;48.398;11.736;2023-09-19T04:42:10;2.90;;;1.43;;
12267;SDS011;6196;48.398;11.736;2023-09-19T04:44:40;3.77;;;1.70;;
12267;SDS011;6196;48.398;11.736;2023-09-19T04:47:08;3.03;;;1.30;;
12267;SDS011;6196;48.398;11.736;2023-09-19T04:49:38;1.57;;;1.23;;
12267;SDS011;6196;48.398;11.736;2023-09-19T04:52:06;2.50;;;1.40;;
12267;SDS011;6196;48.398;11.736;2023-09-19T04:54:33;3.27;;;1.30;;
12267;SDS011;6196;48.398;11.736;2023-09-19T04:57:00;2.37;;;1.20;;
12267;SDS011;6196;48.398;11.736;2023-09-19T04:59:27;2.67;;;1.30;;
12267;SDS011;6196;48.398;11.736;2023-09-19T05:01:54;2.40;;;1.50;;
12267;SDS011;6196;48.398;11.736;2023-09-19T05:04:22;3.83;;;1.50;;
12267;SDS011;6196;48.398;11.736;2023-09-19T05:06:49;1.60;;;1.50;;
12267;SDS011;6196;48.398;11.736;2023-09-19T05:09:17;2.70;;;1.30;;
12267;SDS011;6196;48.398;11.736;2023-09-19T05:11:46;1.87;;;1.40;;
12267;SDS011;6196;48.398;11.736;2023-09-19T05:14:13;1.77;;;1.20;;
12267;SDS011;6196;48.398;11.736;2023-09-19T05:16:40;1.83;;;1.30;;
12267;SDS011;6196;48.398;11.736;2023-09-19T05:19:07;3.73;;;1.50;;
12267;SDS011;6196;48.398;11.736;2023-09-19T05:21:38;1.80;;;1.50;;
12267;SDS011;6196;48.398;11.736;2023-09-19T05:24:05;1.93;;;1.40;;
12267;SDS011;6196;48.398;11.736;2023-09-19T05:26:36;3.73;;;1.30;;
12267;SDS011;6196;48.398;11.736;2023-09-19T05:29:03;2.77;;;1.70;;
12267;SDS011;6196;48.398;11.736;2023-09-19T05:31:31;2.37;;;1.60;;
12267;SDS011;6196;48.398;11.736;2023-09-19T05:33:58;2.87;;;1.47;;
12267;SDS011;6196;48.398;11.736;2023-09-19T05:36:27;4.13;;;1.43;;
12267;SDS011;6196;48.398;11.736;2023-09-19T05:38:56;1.53;;;1.40;;
12267;SDS011;6196;48.398;11.736;2023-09-19T05:41:23;2.50;;;1.30;;
12267;SDS011;6196;48.398;11.736;2023-09-19T05:43:49;1.67;;;1.30;;
12267;SDS011;6196;48.398;11.736;2023-09-19T05:46:17;1.40;;;1.30;;
12267;SDS011;6196;48.398;11.736;2023-09-19T05:48:44;2.10;;;1.70;;
12267;SDS011;6196;48.398;11.736;2023-09-19T05:51:13;2.60;;;1.50;;
12267;SDS011;6196;48.398;11.736;2023-09-19T05:53:40;1.77;;;1.40;;
12267;SDS011;6196;48.398;11.736;2023-09-19T05:56:09;2.50;;;1.43;;
12267;SDS011;6196;48.398;11.736;2023-09-19T05:58:37;1.97;;;1.30;;
12267;SDS011;6196;48.398;11.736;2023-09-19T06:01:05;2.23;;;1.30;;
12267;SDS011;6196;48.398;11.736;2023-09-19T06:03:33;3.37;;;1.80;;
12267;SDS011;6196;48.398;11.736;2023-09-19T06:06:01;2.40;;;1.90;;
12267;SDS011;6196;48.398;11.736;2023-09-19T06:08:29;2.87;;;1.30;;
12267;SDS011;6196;48.398;11.736;2023-09-19T06:10:57;1.83;;;1.27;;
12267;SDS011;6196;48.398;11.736;2023-09-19T06:13:24;2.90;;;1.53;;
12267;SDS011;6196;48.398;11.736;2023-09-19T06:15:53;2.00;;;1.50;;
12267;SDS011;6196;48.398;11.736;2023-09-19T06:18:22;2.80;;;1.47;;
12267;SDS011;6196;48.398;11.736;2023-09-19T06:20:52;2.77;;;1.37;;
12267;SDS011;6196;48.398;11.736;2023-09-19T06:23:20;3.30;;;1.30;;
12267;SDS011;6196;48.398;11.736;2023-09-19T06:25:47;3.60;;;1.47;;
12267;SDS011;6196;48.398;11.736;2023-09-19T06:28:15;2.87;;;1.40;;
12267;SDS011;6196;48.398;11.736;2023-09-19T06:30:44;2.77;;;1.33;;
12267;SDS011;6196;48.398;11.736;2023-09-19T06:33:11;1.80;;;1.30;;
12267;SDS011;6196;48.398;11.736;2023-09-19T06:35:43;1.63;;;1.37;;
12267;SDS011;6196;48.398;11.736;2023-09-19T06:38:10;3.27;;;1.50;;
12267;SDS011;6196;48.398;11.736;2023-09-19T06:40:39;2.53;;;1.30;;
12267;SDS011;6196;48.398;11.736;2023-09-19T06:43:09;1.70;;;1.20;;
12267;SDS011;6196;48.398;11.736;2023-09-19T06:45:37;1.27;;;1.17;;
12267;SDS011;6196;48.398;11.736;2023-09-19T06:48:04;3.70;;;1.40;;
12267;SDS011;6196;48.398;11.736;2023-09-19T06:50:32;2.47;;;1.50;;
12267;SDS011;6196;48.398;11.736;2023-09-19T06:53:00;2.00;;;1.43;;
12267;SDS011;6196;48.398;11.736;2023-09-19T06:55:28;2.03;;;1.00;;
12267;SDS011;6196;48.398;11.736;2023-09-19T06:57:57;3.20;;;1.40;;
12267;SDS011;6196;48.398;11.736;2023-09-19T07:00:25;1.77;;;1.00;;
12267;SDS011;6196;48.398;11.736;2023-09-19T07:02:59;3.07;;;1.20;;
12267;SDS011;6196;48.398;11.736;2023-09-19T07:05:31;1.97;;;1.00;;
12267;SDS011;6196;48.398;11.736;2023-09-19T07:07:59;2.03;;;1.10;;
12267;SDS011;6196;48.398;11.736;2023-09-19T07:10:27;2.00;;;0.90;;
12267;SDS011;6196;48.398;11.736;2023-09-19T07:12:58;1.10;;;1.00;;
12267;SDS011;6196;48.398;11.736;2023-09-19T07:15:35;5.57;;;1.47;;
12267;SDS011;6196;48.398;11.736;2023-09-19T07:18:06;2.50;;;1.10;;
12267;SDS011;6196;48.398;11.736;2023-09-19T07:20:35;2.30;;;1.07;;
12267;SDS011;6196;48.398;11.736;2023-09-19T07:23:03;2.57;;;0.97;;
12267;SDS011;6196;48.398;11.736;2023-09-19T07:25:30;2.30;;;1.00;;
12267;SDS011;6196;48.398;11.736;2023-09-19T07:27:58;2.43;;;1.10;;
12267;SDS011;6196;48.398;11.736;2023-09-19T07:30:28;3.03;;;1.23;;
12267;SDS011;6196;48.398;11.736;2023-09-19T07:32:55;4.40;;;1.00;;
12267;SDS011;6196;48.398;11.736;2023-09-19T07:35:22;2.27;;;0.90;;
12267;SDS011;6196;48.398;11.736;2023-09-19T07:37:50;1.17;;;0.97;;
12267;SDS011;6196;48.398;11.736;2023-09-19T07:40:18;1.93;;;1.00;;
12267;SDS011;6196;48.398;11.736;2023-09-19T07:42:47;3.40;;;1.10;;
12267;SDS011;6196;48.398;11.736;2023-09-19T07:45:14;1.63;;;0.97;;
12267;SDS011;6196;48.398;11.736;2023-09-19T07:47:44;1.07;;;0.97;;
12267;SDS011;6196;48.398;11.736;2023-09-19T07:50:14;4.33;;;1.73;;
12267;SDS011;6196;48.398;11.736;2023-09-19T07:52:46;1.90;;;1.10;;
12267;SDS011;6196;48.398;11.736;2023-09-19T07:55:17;1.03;;;0.90;;
12267;SDS011;6196;48.398;11.736;2023-09-19T07:57:46;1.27;;;0.80;;
12267;SDS011;6196;48.398;11.736;2023-09-19T08:00:13;1.80;;;0.80;;
12267;SDS011;6196;48.398;11.736;2023-09-19T08:02:40;1.77;;;0.80;;
12267;SDS011;6196;48.398;11.736;2023-09-19T08:05:09;2.90;;;1.00;;
12267;SDS011;6196;48.398;11.736;2023-09-19T08:07:38;1.00;;;0.80;;
12267;SDS011;6196;48.398;11.736;2023-09-19T08:10:08;1.20;;;0.97;;
12267;SDS011;6196;48.398;11.736;2023-09-19T08:12:42;1.37;;;1.00;;
12267;SDS011;6196;48.398;11.736;2023-09-19T08:17:42;2.17;;;0.90;;
12267;SDS011;6196;48.398;11.736;2023-09-19T08:20:10;1.97;;;1.10;;
12267;SDS011;6196;48.398;11.736;2023-09-19T08:22:48;2.40;;;0.90;;
12267;SDS011;6196;48.398;11.736;2023-09-19T08:25:23;1.90;;;0.97;;
12267;SDS011;6196;48.398;11.736;2023-09-19T08:27:55;1.33;;;1.17;;
12267;SDS011;6196;48.398;11.736;2023-09-19T08:30:24;2.83;;;1.00;;
12267;SDS011;6196;48.398;11.736;2023-09-19T08:33:02;2.50;;;1.03;;
12267;SDS011;6196;48.398;11.736;2023-09-19T08:35:31;2.63;;;0.90;;
12267;SDS011;6196;48.398;11.736;2023-09-19T08:37:58;1.73;;;0.90;;
12267;SDS011;6196;48.398;11.736;2023-09-19T08:40:30;3.17;;;0.90;;
12267;SDS011;6196;48.398;11.736;2023-09-19T08:42:59;2.10;;;1.00;;
12267;SDS011;6196;48.398;11.736;2023-09-19T08:45:26;1.40;;;0.87;;
12267;SDS011;6196;48.398;11.736;2023-09-19T08:51:07;2.37;;;1.10;;
12267;SDS011;6196;48.398;11.736;2023-09-19T08:53:47;1.00;;;0.63;;
12267;SDS011;6196;48.398;11.736;2023-09-19T08:56:21;4.10;;;1.00;;
12267;SDS011;6196;48.398;11.736;2023-09-19T08:58:51;2.20;;;1.00;;
12267;SDS011;6196;48.398;11.736;2023-09-19T09:01:27;3.20;;;1.00;;
12267;SDS011;6196;48.398;11.736;2023-09-19T09:03:55;1.57;;;1.13;;
12267;SDS011;6196;48.398;11.736;2023-09-19T09:06:25;1.53;;;1.00;;
12267;SDS011;6196;48.398;11.736;2023-09-19T09:08:54;1.90;;;0.97;;
12267;SDS011;6196;48.398;11.736;2023-09-19T09:11:22;1.90;;;1.00;;
12267;SDS011;6196;48.398;11.736;2023-09-19T09:13:54;1.53;;;0.90;;
12267;SDS011;6196;48.398;11.736;2023-09-19T09:16:21;1.77;;;0.97;;
12267;SDS011;6196;48.398;11.736;2023-09-19T09:18:52;2.27;;;0.83;;
12267;SDS011;6196;48.398;11.736;2023-09-19T09:21:21;1.23;;;0.80;;
12267;SDS011;6196;48.398;11.736;2023-09-19T09:23:49;0.80;;;0.80;;
12267;SDS011;6196;48.398;11.736;2023-09-19T09:26:20;1.87;;;0.93;;
12267;SDS011;6196;48.398;11.736;2023-09-19T09:29:09;1.50;;;0.90;;
12267;SDS011;6196;48.398;11.736;2023-09-19T09:31:36;3.43;;;0.97;;
12267;SDS011;6196;48.398;11.736;2023-09-19T09:34:04;1.37;;;0.80;;
12267;SDS011;6196;48.398;11.736;2023-09-19T09:36:35;1.13;;;0.80;;
12267;SDS011;6196;48.398;11.736;2023-09-19T09:39:04;1.33;;;0.90;;
12267;SDS011;6196;48.398;11.736;2023-09-19T09:41:51;2.47;;;0.90;;
12267;SDS011;6196;48.398;11.736;2023-09-19T09:44:18;1.60;;;1.00;;
12267;SDS011;6196;48.398;11.736;2023-09-19T09:46:46;2.20;;;0.90;;
12267;SDS011;6196;48.398;11.736;2023-09-19T09:49:24;1.80;;;1.00;;
12267;SDS011;6196;48.398;11.736;2023-09-19T09:52:03;3.37;;;1.17;;
12267;SDS011;6196;48.398;11.736;2023-09-19T09:54:59;2.20;;;0.93;;
12267;SDS011;6196;48.398;11.736;2023-09-19T09:57:32;3.13;;;0.90;;
12267;SDS011;6196;48.398;11.736;2023-09-19T10:00:01;1.37;;;1.00;;
12267;SDS011;6196;48.398;11.736;2023-09-19T10:02:38;1.83;;;1.00;;
12267;SDS011;6196;48.398;11.736;2023-09-19T10:05:18;2.17;;;0.93;;
12267;SDS011;6196;48.398;11.736;2023-09-19T10:07:47;0.70;;;0.70;;
12267;SDS011;6196;48.398;11.736;2023-09-19T10:10:30;1.43;;;0.90;;
12267;SDS011;6196;48.398;11.736;2023-09-19T10:13:07;1.73;;;1.07;;
12267;SDS011;6196;48.398;11.736;2023-09-19T10:15:48;2.50;;;1.13;;
12267;SDS011;6196;48.398;11.736;2023-09-19T10:18:22;3.23;;;1.00;;
12267;SDS011;6196;48.398;11.736;2023-09-19T10:20:51;7.30;;;0.83;;
12267;SDS011;6196;48.398;11.736;2023-09-19T10:23:19;0.90;;;0.70;;
12267;SDS011;6196;48.398;11.736;2023-09-19T10:25:52;2.20;;;1.00;;
12267;SDS011;6196;48.398;11.736;2023-09-19T10:28:20;0.93;;;0.80;;
12267;SDS011;6196;48.398;11.736;2023-09-19T10:30:49;1.27;;;0.80;;
12267;SDS011;6196;48.398;11.736;2023-09-19T10:33:19;0.83;;;0.70;;
12267;SDS011;6196;48.398;11.736;2023-09-19T10:35:56;2.67;;;0.80;;
12267;SDS011;6196;48.398;11.736;2023-09-19T10:38:26;2.00;;;1.10;;
12267;SDS011;6196;48.398;11.736;2023-09-19T10:40:56;2.40;;;0.80;;
12267;SDS011;6196;48.398;11.736;2023-09-19T10:43:31;1.90;;;0.90;;
12267;SDS011;6196;48.398;11.736;2023-09-19T10:46:03;3.87;;;1.10;;
12267;SDS011;6196;48.398;11.736;2023-09-19T10:48:37;1.90;;;1.03;;
12267;SDS011;6196;48.398;11.736;2023-09-19T10:51:08;1.47;;;1.03;;
12267;SDS011;6196;48.398;11.736;2023-09-19T10:53:50;1.20;;;1.10;;
12267;SDS011;6196;48.398;11.736;2023-09-19T10:56:27;1.13;;;0.63;;
12267;SDS011;6196;48.398;11.736;2023-09-19T11:01:43;1.80;;;0.70;;
12267;SDS011;6196;48.398;11.736;2023-09-19T11:04:31;4.00;;;0.80;;
12267;SDS011;6196;48.398;11.736;2023-09-19T11:09:53;0.93;;;0.77;;
12267;SDS011;6196;48.398;11.736;2023-09-19T11:14:59;2.00;;;0.70;;
12267;SDS011;6196;48.398;11.736;2023-09-19T11:28:44;1.00;;;0.80;;
12267;SDS011;6196;48.398;11.736;2023-09-19T11:30:54;1.53;;;0.80;;
12267;SDS011;6196;48.398;11.736;2023-09-19T11:33:28;1.70;;;0.60;;
12267;SDS011;6196;48.398;11.736;2023-09-19T11:36:08;0.90;;;0.80;;
12267;SDS011;6196;48.398;11.736;2023-09-19T11:46:27;0.97;;;0.83;;
12267;SDS011;6196;48.398;11.736;2023-09-19T11:48:56;0.93;;;0.67;;
12267;SDS011;6196;48.398;11.736;2023-09-19T11:51:56;1.50;;;0.70;;
12267;SDS011;6196;48.398;11.736;2023-09-19T11:54:23;2.77;;;0.73;;
12267;SDS011;6196;48.398;11.736;2023-09-19T11:56:54;1.33;;;0.80;;
12267;SDS011;6196;48.398;11.736;2023-09-19T11:59:25;0.73;;;0.63;;
12267;SDS011;6196;48.398;11.736;2023-09-19T12:02:04;0.97;;;0.70;;
12267;SDS011;6196;48.398;11.736;2023-09-19T12:04:39;1.00;;;0.80;;
12267;SDS011;6196;48.398;11.736;2023-09-19T12:07:11;1.50;;;0.90;;
12267;SDS011;6196;48.398;11.736;2023-09-19T12:09:43;1.50;;;0.90;;
12267;SDS011;6196;48.398;11.736;2023-09-19T12:12:19;1.27;;;0.80;;
12267;SDS011;6196;48.398;11.736;2023-09-19T12:14:51;1.63;;;0.90;;
12267;SDS011;6196;48.398;11.736;2023-09-19T12:17:18;3.23;;;0.80;;
12267;SDS011;6196;48.398;11.736;2023-09-19T12:19:52;2.70;;;1.07;;
12267;SDS011;6196;48.398;11.736;2023-09-19T12:22:22;2.03;;;1.00;;
12267;SDS011;6196;48.398;11.736;2023-09-19T12:24:49;1.13;;;0.80;;
12267;SDS011;6196;48.398;11.736;2023-09-19T12:27:17;1.20;;;0.77;;
12267;SDS011;6196;48.398;11.736;2023-09-19T12:29:44;0.80;;;0.80;;
12267;SDS011;6196;48.398;11.736;2023-09-19T12:32:17;2.07;;;0.90;;
12267;SDS011;6196;48.398;11.736;2023-09-19T12:34:51;1.33;;;0.90;;
12267;SDS011;6196;48.398;11.736;2023-09-19T12:37:19;1.60;;;0.90;;
12267;SDS011;6196;48.398;11.736;2023-09-19T12:39:48;1.00;;;0.87;;
12267;SDS011;6196;48.398;11.736;2023-09-19T12:42:23;4.90;;;1.10;;
12267;SDS011;6196;48.398;11.736;2023-09-19T12:44:58;2.30;;;1.07;;
12267;SDS011;6196;48.398;11.736;2023-09-19T12:47:27;1.77;;;0.97;;
12267;SDS011;6196;48.398;11.736;2023-09-19T12:52:37;1.30;;;0.87;;
12267;SDS011;6196;48.398;11.736;2023-09-19T12:55:50;2.93;;;0.90;;
12267;SDS011;6196;48.398;11.736;2023-09-19T12:58:13;3.20;;;0.97;;
12267;SDS011;6196;48.398;11.736;2023-09-19T13:00:45;1.60;;;1.10;;
12267;SDS011;6196;48.398;11.736;2023-09-19T13:03:13;1.43;;;1.00;;
12267;SDS011;6196;48.398;11.736;2023-09-19T13:05:58;1.13;;;0.90;;
12267;SDS011;6196;48.398;11.736;2023-09-19T13:08:31;1.70;;;0.90;;
12267;SDS011;6196;48.398;11.736;2023-09-19T13:11:12;1.73;;;0.70;;
12267;SDS011;6196;48.398;11.736;2023-09-19T13:13:49;1.70;;;0.90;;
12267;SDS011;6196;48.398;11.736;2023-09-19T13:16:28;3.43;;;0.90;;
12267;SDS011;6196;48.398;11.736;2023-09-19T13:18:55;0.80;;;0.70;;
12267;SDS011;6196;48.398;11.736;2023-09-19T13:21:29;1.23;;;0.60;;
12267;SDS011;6196;48.398;11.736;2023-09-19T13:24:22;0.60;;;0.60;;
12267;SDS011;6196;48.398;11.736;2023-09-19T13:26:56;2.17;;;1.10;;
12267;SDS011;6196;48.398;11.736;2023-09-19T13:29:23;0.77;;;0.60;;
12267;SDS011;6196;48.398;11.736;2023-09-19T13:31:51;2.08;;;0.80;;
12267;SDS011;6196;48.398;11.736;2023-09-19T13:34:19;0.98;;;0.70;;
12267;SDS011;6196;48.398;11.736;2023-09-19T13:36:47;0.88;;;0.68;;
12267;SDS011;6196;48.398;11.736;2023-09-19T13:39:17;1.02;;;0.80;;
12267;SDS011;6196;48.398;11.736;2023-09-19T13:41:44;1.02;;;0.93;;
12267;SDS011;6196;48.398;11.736;2023-09-19T13:44:14;1.65;;;0.85;;
12267;SDS011;6196;48.398;11.736;2023-09-19T13:46:43;1.27;;;0.70;;
12267;SDS011;6196;48.398;11.736;2023-09-19T13:49:13;1.30;;;1.08;;
12267;SDS011;6196;48.398;11.736;2023-09-19T13:51:40;1.20;;;0.90;;
12267;SDS011;6196;48.398;11.736;2023-09-19T13:54:10;1.85;;;0.80;;
12267;SDS011;6196;48.398;11.736;2023-09-19T13:56:38;2.35;;;1.17;;
12267;SDS011;6196;48.398;11.736;2023-09-19T13:59:05;2.05;;;1.00;;
12267;SDS011;6196;48.398;11.736;2023-09-19T14:01:33;2.22;;;1.10;;
12267;SDS011;6196;48.398;11.736;2023-09-19T14:04:00;0.90;;;0.80;;
12267;SDS011;6196;48.398;11.736;2023-09-19T14:06:28;1.50;;;0.88;;
12267;SDS011;6196;48.398;11.736;2023-09-19T14:08:55;1.30;;;1.00;;
12267;SDS011;6196;48.398;11.736;2023-09-19T14:11:22;2.25;;;1.05;;
12267;SDS011;6196;48.398;11.736;2023-09-19T14:13:49;1.98;;;1.08;;
12267;SDS011;6196;48.398;11.736;2023-09-19T14:16:16;1.20;;;1.00;;
12267;SDS011;6196;48.398;11.736;2023-09-19T14:18:45;1.15;;;0.98;;
12267;SDS011;6196;48.398;11.736;2023-09-19T14:21:12;3.28;;;1.10;;
12267;SDS011;6196;48.398;11.736;2023-09-19T14:23:41;1.80;;;0.88;;
12267;SDS011;6196;48.398;11.736;2023-09-19T14:26:09;2.80;;;0.93;;
12267;SDS011;6196;48.398;11.736;2023-09-19T14:28:36;2.22;;;0.80;;
12267;SDS011;6196;48.398;11.736;2023-09-19T14:31:09;2.70;;;1.00;;
12267;SDS011;6196;48.398;11.736;2023-09-19T14:33:37;2.50;;;1.00;;
12267;SDS011;6196;48.398;11.736;2023-09-19T14:36:06;1.70;;;1.10;;
12267;SDS011;6196;48.398;11.736;2023-09-19T14:38:37;1.50;;;0.93;;
12267;SDS011;6196;48.398;11.736;2023-09-19T14:41:05;1.27;;;0.90;;
12267;SDS011;6196;48.398;11.736;2023-09-19T14:43:33;1.63;;;1.00;;
12267;SDS011;6196;48.398;11.736;2023-09-19T14:46:03;0.95;;;0.80;;
12267;SDS011;6196;48.398;11.736;2023-09-19T14:48:34;1.50;;;0.85;;
12267;SDS011;6196;48.398;11.736;2023-09-19T14:51:04;1.63;;;1.05;;
12267;SDS011;6196;48.398;11.736;2023-09-19T14:53:35;1.08;;;0.98;;
12267;SDS011;6196;48.398;11.736;2023-09-19T14:56:07;1.95;;;1.17;;
12267;SDS011;6196;48.398;11.736;2023-09-19T14:58:35;4.55;;;1.10;;
12267;SDS011;6196;48.398;11.736;2023-09-19T15:01:06;1.13;;;0.93;;
12267;SDS011;6196;48.398;11.736;2023-09-19T15:03:36;1.60;;;1.00;;
12267;SDS011;6196;48.398;11.736;2023-09-19T15:06:13;1.23;;;0.90;;
12267;SDS011;6196;48.398;11.736;2023-09-19T15:08:44;1.58;;;1.00;;
12267;SDS011;6196;48.398;11.736;2023-09-19T15:11:14;4.15;;;1.40;;
12267;SDS011;6196;48.398;11.736;2023-09-19T15:13:47;1.20;;;1.00;;
12267;SDS011;6196;48.398;11.736;2023-09-19T15:16:18;1.10;;;1.00;;
12267;SDS011;6196;48.398;11.736;2023-09-19T15:18:45;1.23;;;1.00;;
12267;SDS011;6196;48.398;11.736;2023-09-19T15:21:18;1.88;;;1.00;;
12267;SDS011;6196;48.398;11.736;2023-09-19T15:23:45;2.63;;;1.10;;
12267;SDS011;6196;48.398;11.736;2023-09-19T15:26:13;2.17;;;0.90;;
12267;SDS011;6196;48.398;11.736;2023-09-19T15:28:47;1.65;;;1.10;;
12267;SDS011;6196;48.398;11.736;2023-09-19T15:31:14;1.13;;;1.00;;
12267;SDS011;6196;48.398;11.736;2023-09-19T15:33:42;1.40;;;1.08;;
12267;SDS011;6196;48.398;11.736;2023-09-19T15:36:09;1.38;;;1.00;;
12267;SDS011;6196;48.398;11.736;2023-09-19T15:41:38;1.45;;;1.10;;
12267;SDS011;6196;48.398;11.736;2023-09-19T15:44:11;5.40;;;1.30;;
12267;SDS011;6196;48.398;11.736;2023-09-19T15:46:40;1.80;;;1.10;;
12267;SDS011;6196;48.398;11.736;2023-09-19T15:49:07;2.10;;;1.20;;
12267;SDS011;6196;48.398;11.736;2023-09-19T15:51:35;2.23;;;1.10;;
12267;SDS011;6196;48.398;11.736;2023-09-19T15:54:06;0.83;;;0.80;;
12267;SDS011;6196;48.398;11.736;2023-09-19T15:56:44;1.57;;;0.90;;
12267;SDS011;6196;48.398;11.736;2023-09-19T15:59:13;2.27;;;1.10;;
12267;SDS011;6196;48.398;11.736;2023-09-19T16:01:40;1.73;;;1.07;;